createdAt,value
2018-11-04T00:01:38.228Z,83.95
2018-11-04T00:04:06.835Z,83.38
2018-11-04T00:06:35.136Z,84.60
2018-11-04T00:09:04.301Z,84.42
2018-11-04T00:11:32.728Z,83.31
2018-11-04T00:14:01.045Z,83.97
2018-11-04T00:16:29.360Z,83.75
2018-11-04T00:18:57.637Z,83.83
2018-11-04T00:21:25.953Z,84.89
2018-11-04T00:23:54.361Z,84.66
2018-11-04T00:26:22.997Z,85.93
2018-11-04T00:28:51.482Z,83.54
2018-11-04T00:31:19.914Z,84.67
2018-11-04T00:33:48.169Z,85.31
2018-11-04T00:36:16.466Z,85.17
2018-11-04T00:38:44.770Z,84.99
2018-11-04T00:41:13.109Z,84.93
2018-11-04T00:43:41.473Z,84.25
2018-11-04T00:46:09.872Z,84.66
2018-11-04T00:48:38.605Z,85.38
2018-11-04T00:51:07.111Z,86.06
2018-11-04T00:53:35.445Z,85.39
2018-11-04T00:56:03.805Z,85.35
2018-11-04T00:58:32.142Z,85.87
2018-11-04T01:01:00.462Z,85.95
2018-11-04T01:03:28.983Z,85.46
2018-11-04T01:05:57.368Z,84.94
2018-11-04T01:08:25.695Z,83.93
2018-11-04T01:10:54.006Z,85.60
2018-11-04T01:13:22.313Z,83.58
2018-11-04T01:15:50.684Z,86.13
2018-11-04T01:18:19.026Z,86.33
2018-11-04T01:20:47.534Z,86.05
2018-11-04T01:23:15.922Z,86.79
2018-11-04T01:25:44.291Z,86.38
2018-11-04T01:28:12.605Z,85.17
2018-11-04T01:30:45.034Z,87.00
2018-11-04T01:33:13.321Z,87.33
2018-11-04T01:35:41.675Z,87.67
2018-11-04T01:38:10.082Z,86.68
2018-11-04T01:40:38.396Z,86.30
2018-11-04T01:43:06.733Z,87.04
2018-11-04T01:45:35.092Z,86.23
2018-11-04T01:48:03.382Z,87.09
2018-11-04T01:50:31.733Z,87.23
2018-11-04T01:53:00.050Z,87.66
2018-11-04T01:55:28.565Z,87.75
2018-11-04T01:57:56.871Z,87.39
2018-11-04T02:00:25.213Z,87.71
2018-11-04T02:02:53.725Z,87.37
2018-11-04T02:05:22.038Z,87.06
2018-11-04T02:07:50.372Z,88.13
2018-11-04T02:10:18.707Z,86.89
2018-11-04T02:12:47.123Z,87.22
2018-11-04T02:15:15.408Z,87.96
2018-11-04T02:17:43.909Z,87.23
2018-11-04T02:20:13.374Z,88.46
2018-11-04T02:22:42.128Z,89.36
2018-11-04T02:25:11.758Z,89.63
2018-11-04T02:27:40.422Z,89.53
2018-11-04T02:30:11.233Z,88.77
2018-11-04T02:32:39.670Z,89.69
2018-11-04T02:35:08.152Z,90.03
2018-11-04T02:37:36.769Z,89.90
2018-11-04T02:40:05.539Z,89.61
2018-11-04T02:42:33.954Z,89.51
2018-11-04T02:45:02.286Z,89.74
2018-11-04T02:47:30.641Z,90.21
2018-11-04T02:49:58.971Z,89.72
2018-11-04T02:52:27.422Z,89.18
2018-11-04T02:54:55.764Z,90.33
2018-11-04T02:57:24.224Z,90.46
2018-11-04T02:59:52.623Z,90.29
2018-11-04T03:02:20.950Z,91.83
2018-11-04T03:04:49.321Z,91.16
2018-11-04T03:07:17.719Z,90.45
2018-11-04T03:09:46.046Z,90.60
2018-11-04T03:12:14.372Z,91.27
2018-11-04T03:14:42.989Z,90.76
2018-11-04T03:17:11.325Z,92.12
2018-11-04T03:19:39.744Z,91.28
2018-11-04T03:22:08.089Z,90.93
2018-11-04T03:24:36.431Z,90.63
2018-11-04T03:27:04.991Z,91.16
2018-11-04T03:30:37.070Z,91.80
2018-11-04T03:33:05.853Z,91.50
2018-11-04T03:35:34.256Z,91.66
2018-11-04T03:38:02.565Z,91.92
2018-11-04T03:40:31.015Z,93.25
2018-11-04T03:42:59.354Z,91.51
2018-11-04T03:45:27.702Z,90.86
2018-11-04T03:47:56.132Z,92.35
2018-11-04T03:50:24.422Z,92.46
2018-11-04T03:52:52.732Z,91.88
2018-11-04T03:55:21.188Z,93.04
2018-11-04T03:57:49.483Z,92.67
2018-11-04T04:00:17.979Z,93.67
2018-11-04T04:02:46.304Z,92.62
2018-11-04T04:05:14.713Z,93.51
2018-11-04T04:07:43.091Z,92.60
2018-11-04T04:10:11.669Z,92.47
2018-11-04T04:12:40.038Z,92.67
2018-11-04T04:15:09.564Z,93.42
2018-11-04T04:17:37.905Z,92.34
2018-11-04T04:20:06.747Z,92.05
2018-11-04T04:22:35.291Z,91.40
2018-11-04T04:25:03.680Z,91.67
2018-11-04T04:27:31.981Z,91.89
2018-11-04T04:30:00.478Z,92.19
2018-11-04T04:32:28.827Z,92.32
2018-11-04T04:34:57.275Z,91.99
2018-11-04T04:37:25.680Z,91.96
2018-11-04T04:39:53.977Z,91.95
2018-11-04T04:42:22.269Z,92.18
2018-11-04T04:44:50.690Z,91.15
2018-11-04T04:47:19.072Z,91.12
2018-11-04T04:49:47.404Z,90.23
2018-11-04T04:52:15.722Z,90.58
2018-11-04T04:54:44.299Z,89.84
2018-11-04T04:57:12.634Z,90.13
2018-11-04T04:59:40.941Z,91.03
2018-11-04T05:02:09.483Z,90.74
2018-11-04T05:04:37.817Z,91.33
2018-11-04T05:07:06.153Z,91.84
2018-11-04T05:09:34.536Z,91.29
2018-11-04T05:12:02.910Z,90.88
2018-11-04T05:14:31.398Z,91.04
2018-11-04T05:17:00.129Z,91.28
2018-11-04T05:19:28.463Z,91.31
2018-11-04T05:21:56.760Z,90.24
2018-11-04T05:24:25.081Z,91.06
2018-11-04T05:26:53.487Z,90.67
2018-11-04T05:29:21.976Z,90.92
2018-11-04T05:31:50.274Z,90.20
2018-11-04T05:34:18.758Z,89.79
2018-11-04T05:36:47.123Z,89.94
2018-11-04T05:39:15.434Z,90.93
2018-11-04T05:41:43.798Z,90.40
2018-11-04T05:44:12.144Z,90.12
2018-11-04T05:46:40.431Z,90.10
2018-11-04T05:49:08.895Z,89.52
2018-11-04T05:51:37.253Z,88.42
2018-11-04T05:54:05.891Z,88.11
2018-11-04T05:56:34.233Z,88.57
2018-11-04T05:59:02.543Z,89.17
2018-11-04T06:01:30.922Z,89.38
2018-11-04T06:03:59.277Z,88.73
2018-11-04T06:06:27.605Z,88.38
2018-11-04T06:08:55.975Z,88.38
2018-11-04T06:11:24.266Z,88.04
2018-11-04T06:13:52.569Z,86.70
2018-11-04T06:16:20.850Z,88.48
2018-11-04T06:18:49.166Z,88.59
2018-11-04T06:21:17.503Z,89.26
2018-11-04T06:23:45.849Z,88.23
2018-11-04T06:26:14.194Z,88.75
2018-11-04T06:28:42.576Z,87.92
2018-11-04T06:31:10.997Z,87.84
2018-11-04T06:33:39.420Z,88.15
2018-11-04T06:36:07.765Z,88.29
2018-11-04T06:38:36.262Z,87.30
2018-11-04T06:41:04.576Z,88.21
2018-11-04T06:43:32.973Z,87.69
2018-11-04T06:46:01.368Z,88.37
2018-11-04T06:48:29.674Z,87.44
2018-11-04T06:50:58.477Z,87.23
2018-11-04T06:53:29.594Z,86.58
2018-11-04T06:55:58.042Z,85.78
2018-11-04T06:58:26.431Z,85.92
2018-11-04T07:00:54.982Z,85.60
2018-11-04T07:03:23.433Z,85.51
2018-11-04T07:05:51.944Z,85.55
2018-11-04T07:08:20.415Z,84.87
2018-11-04T07:10:48.923Z,84.71
2018-11-04T07:13:18.774Z,84.80
2018-11-04T07:15:47.335Z,84.11
2018-11-04T07:18:15.826Z,83.26
2018-11-04T07:20:44.338Z,83.68
2018-11-04T07:23:36.416Z,82.86
2018-11-04T07:26:05.170Z,83.66
2018-11-04T07:28:34.016Z,82.87
2018-11-04T07:31:02.866Z,82.57
2018-11-04T07:33:31.485Z,82.60
2018-11-04T07:35:59.833Z,83.07
2018-11-04T07:38:28.114Z,83.46
2018-11-04T07:40:57.436Z,83.50
2018-11-04T07:43:25.893Z,83.69
2018-11-04T07:45:54.271Z,82.63
2018-11-04T07:48:22.652Z,83.06
2018-11-04T07:50:51.092Z,83.24
2018-11-04T07:53:19.416Z,82.91
2018-11-04T07:55:47.722Z,83.07
2018-11-04T07:58:16.058Z,82.76
2018-11-04T08:00:45.121Z,82.75
2018-11-04T08:03:13.470Z,81.85
2018-11-04T08:05:41.769Z,81.87
2018-11-04T08:08:13.061Z,80.89
2018-11-04T08:10:41.413Z,80.91
2018-11-04T08:13:11.050Z,80.82
2018-11-04T08:15:39.745Z,80.45
2018-11-04T08:18:08.199Z,80.63
2018-11-04T08:20:36.515Z,80.55
2018-11-04T08:23:04.990Z,80.53
2018-11-04T08:25:33.620Z,80.99
2018-11-04T08:28:01.990Z,80.42
2018-11-04T08:30:30.257Z,81.59
2018-11-04T08:32:58.561Z,80.62
2018-11-04T08:35:26.989Z,80.98
2018-11-04T08:37:55.271Z,79.72
2018-11-04T08:40:23.768Z,79.88
2018-11-04T08:42:55.839Z,81.15
2018-11-04T08:45:24.639Z,81.47
2018-11-04T08:47:53.652Z,81.29
2018-11-04T08:50:22.085Z,80.59
2018-11-04T08:52:51.032Z,80.49
2018-11-04T08:55:19.429Z,80.08
2018-11-04T08:57:48.532Z,79.89
2018-11-04T09:00:21.086Z,81.22
2018-11-04T09:02:51.002Z,80.50
2018-11-04T09:05:25.447Z,79.79
2018-11-04T09:08:04.060Z,79.72
2018-11-04T09:10:37.131Z,78.56
2018-11-04T09:13:12.083Z,77.56
2018-11-04T09:15:56.342Z,76.68
2018-11-04T09:18:25.846Z,75.74
2018-11-04T09:20:55.510Z,76.12
2018-11-04T09:23:24.444Z,75.55
2018-11-04T09:25:53.345Z,75.77
2018-11-04T09:28:22.138Z,76.37
2018-11-04T09:30:51.936Z,75.71
2018-11-04T09:33:20.731Z,75.49
2018-11-04T09:35:49.501Z,76.00
2018-11-04T09:38:18.618Z,76.13
2018-11-04T09:40:46.976Z,77.16
2018-11-04T09:43:16.002Z,77.25
2018-11-04T09:45:44.925Z,76.10
2018-11-04T09:48:13.413Z,76.72
2018-11-04T09:50:41.979Z,75.02
2018-11-04T09:53:11.062Z,75.17
2018-11-04T09:55:40.338Z,73.53
2018-11-04T09:58:09.224Z,73.25
2018-11-04T10:00:37.606Z,73.62
2018-11-04T10:03:07.109Z,73.68
2018-11-04T10:05:37.036Z,73.43
2018-11-04T10:08:05.799Z,72.90
2018-11-04T10:10:35.404Z,72.45
2018-11-04T10:13:04.930Z,72.32
2018-11-04T10:15:33.520Z,71.69
2018-11-04T10:18:04.422Z,72.51
2018-11-04T10:20:33.105Z,73.13
2018-11-04T10:23:01.173Z,74.09
2018-11-04T10:25:29.885Z,73.14
2018-11-04T10:27:59.389Z,73.50
2018-11-04T10:30:27.880Z,72.76
2018-11-04T10:32:56.937Z,73.10
2018-11-04T10:35:26.041Z,72.79
2018-11-04T10:37:54.735Z,73.53
2018-11-04T10:40:23.066Z,73.27
2018-11-04T10:42:51.905Z,72.95
2018-11-04T10:45:20.495Z,74.08
2018-11-04T10:47:48.831Z,73.99
2018-11-04T10:50:17.369Z,74.03
2018-11-04T10:52:47.545Z,74.79
2018-11-04T10:55:16.040Z,73.85
2018-11-04T10:57:45.273Z,75.04
2018-11-04T11:00:19.597Z,74.39
2018-11-04T11:02:47.932Z,75.65
2018-11-04T11:05:16.493Z,75.07
2018-11-04T11:07:47.426Z,74.50
2018-11-04T11:10:15.905Z,74.17
2018-11-04T11:12:44.255Z,74.25
2018-11-04T11:15:13.425Z,74.31
2018-11-04T11:17:41.980Z,75.50
2018-11-04T11:20:12.340Z,73.42
2018-11-04T11:22:41.153Z,73.65
2018-11-04T11:25:10.493Z,72.03
2018-11-04T11:27:39.013Z,72.38
2018-11-04T11:30:07.784Z,72.12
2018-11-04T11:32:36.185Z,73.17
2018-11-04T11:35:04.718Z,72.92
2018-11-04T11:37:33.280Z,72.50
2018-11-04T11:40:01.514Z,71.31
2018-11-04T11:42:30.177Z,71.33
2018-11-04T11:44:58.683Z,70.86
2018-11-04T11:47:26.941Z,70.57
2018-11-04T11:49:55.307Z,70.63
2018-11-04T11:52:24.183Z,70.26
2018-11-04T11:54:52.714Z,71.04
2018-11-04T11:57:21.348Z,71.88
2018-11-04T11:59:49.834Z,71.96
2018-11-04T12:02:18.278Z,71.69
2018-11-04T12:04:46.630Z,71.33
2018-11-04T12:07:15.205Z,70.82
2018-11-04T12:09:43.885Z,70.61
2018-11-04T12:12:12.267Z,70.00
2018-11-04T12:14:40.852Z,69.94
2018-11-04T12:17:09.266Z,69.91
2018-11-04T12:19:37.653Z,70.09
2018-11-04T12:22:06.112Z,69.88
2018-11-04T12:24:34.456Z,69.52
2018-11-04T12:27:02.775Z,70.04
2018-11-04T12:29:31.122Z,70.31
2018-11-04T12:31:59.433Z,70.63
2018-11-04T12:34:27.880Z,69.90
2018-11-04T12:36:56.230Z,69.16
2018-11-04T12:39:24.541Z,70.12
2018-11-04T12:41:52.820Z,71.84
2018-11-04T12:44:21.690Z,71.48
2018-11-04T12:46:50.020Z,70.31
2018-11-04T12:49:18.323Z,70.65
2018-11-04T12:51:46.718Z,69.84
2018-11-04T12:54:15.922Z,69.96
2018-11-04T12:56:44.256Z,69.41
2018-11-04T12:59:12.573Z,69.21
2018-11-04T13:01:40.892Z,68.97
2018-11-04T13:04:09.500Z,68.66
2018-11-04T13:06:37.832Z,68.93
2018-11-04T13:09:08.169Z,68.67
2018-11-04T13:11:37.325Z,67.99
2018-11-04T13:14:06.465Z,67.67
2018-11-04T13:16:35.040Z,68.57
2018-11-04T13:19:03.404Z,68.05
2018-11-04T13:21:32.038Z,67.72
2018-11-04T13:24:00.360Z,68.71
2018-11-04T13:26:28.872Z,67.51
2018-11-04T13:28:57.390Z,68.37
2018-11-04T13:31:25.885Z,68.71
2018-11-04T13:33:54.397Z,67.87
2018-11-04T13:36:22.887Z,68.29
2018-11-04T13:38:51.523Z,68.13
2018-11-04T13:41:19.864Z,69.04
2018-11-04T13:43:48.190Z,68.85
2018-11-04T13:46:16.536Z,69.35
2018-11-04T13:48:44.906Z,68.53
2018-11-04T13:51:13.219Z,68.98
2018-11-04T13:53:41.610Z,68.14
2018-11-04T13:56:10.227Z,69.17
2018-11-04T13:58:39.372Z,70.33
2018-11-04T14:01:07.733Z,70.20
2018-11-04T14:03:37.129Z,70.62
2018-11-04T14:06:05.460Z,71.26
2018-11-04T14:08:34.359Z,70.70
2018-11-04T14:11:02.760Z,71.05
2018-11-04T14:13:31.353Z,72.40
2018-11-04T14:15:59.582Z,71.97
2018-11-04T14:18:27.994Z,72.46
2018-11-04T14:20:56.395Z,72.38
2018-11-04T14:23:24.956Z,73.09
2018-11-04T14:25:53.312Z,73.43
2018-11-04T14:28:21.718Z,74.03
2018-11-04T14:30:50.041Z,74.21
2018-11-04T14:33:18.598Z,75.00
2018-11-04T14:35:49.825Z,74.30
2018-11-04T14:38:23.357Z,74.97
2018-11-04T14:43:51.954Z,75.51
2018-11-04T14:52:19.672Z,75.85
2018-11-04T14:54:48.088Z,76.31
2018-11-04T14:57:22.082Z,77.07
2018-11-04T14:59:51.174Z,78.16
2018-11-04T15:02:19.788Z,77.41
2018-11-04T15:04:48.401Z,76.84
2018-11-04T15:07:20.517Z,77.34
2018-11-04T15:15:53.255Z,76.79
2018-11-04T15:18:21.868Z,77.51
2018-11-04T15:20:50.243Z,78.30
2018-11-04T15:23:30.665Z,78.68
2018-11-04T15:31:45.908Z,79.60
2018-11-04T15:37:09.508Z,79.98
2018-11-04T15:39:40.459Z,80.92
2018-11-04T15:42:09.873Z,79.37
2018-11-04T15:44:39.485Z,79.73
2018-11-04T15:47:18.947Z,80.38
2018-11-04T15:49:48.165Z,79.90
2018-11-04T15:52:18.376Z,80.40
2018-11-04T15:54:59.887Z,80.48
2018-11-04T15:57:33.790Z,82.15
2018-11-04T16:00:04.193Z,82.01
2018-11-04T16:05:54.379Z,81.96
2018-11-04T16:08:22.733Z,81.72
2018-11-04T16:10:51.149Z,83.26
2018-11-04T16:13:19.647Z,82.78
2018-11-04T16:15:48.153Z,82.92
2018-11-04T16:18:16.585Z,83.14
2018-11-04T16:20:45.247Z,83.51
2018-11-04T16:23:13.762Z,84.06
2018-11-04T16:25:42.486Z,83.09
2018-11-04T16:28:10.917Z,83.72
2018-11-04T16:30:41.741Z,83.40
2018-11-04T16:33:10.787Z,85.23
2018-11-04T16:35:39.464Z,84.35
2018-11-04T16:38:08.030Z,83.36
2018-11-04T16:40:36.384Z,83.86
2018-11-04T16:43:04.725Z,84.63
2018-11-04T16:45:33.062Z,84.29
2018-11-04T16:48:01.543Z,83.71
2018-11-04T16:50:30.157Z,83.51
2018-11-04T16:52:58.605Z,84.64
2018-11-04T16:55:26.931Z,84.42
2018-11-04T16:57:55.636Z,84.27
2018-11-04T17:00:23.976Z,84.81
2018-11-04T17:02:52.349Z,84.82
2018-11-04T17:05:20.879Z,83.47
2018-11-04T17:07:49.317Z,83.01
2018-11-04T17:10:17.692Z,83.95
2018-11-04T17:12:45.968Z,84.02
2018-11-04T17:15:15.354Z,84.72
2018-11-04T17:17:43.982Z,84.17
2018-11-04T17:20:14.322Z,83.14
2018-11-04T17:22:43.226Z,83.28
2018-11-04T17:25:12.042Z,83.63
2018-11-04T17:27:40.618Z,83.25
2018-11-04T17:30:14.609Z,83.72
2018-11-04T17:32:43.188Z,84.02
2018-11-04T17:35:13.204Z,84.19
2018-11-04T17:37:42.204Z,83.71
2018-11-04T17:40:11.623Z,84.17
2018-11-04T17:42:39.900Z,84.13
2018-11-04T17:45:10.012Z,83.57
2018-11-04T17:47:38.948Z,83.73
2018-11-04T17:50:09.787Z,84.59
2018-11-04T17:52:38.156Z,86.25
2018-11-04T17:55:06.575Z,84.58
2018-11-04T17:57:34.964Z,84.68
2018-11-04T18:00:03.352Z,85.54
2018-11-04T18:02:31.672Z,84.94
2018-11-04T18:04:59.977Z,85.07
2018-11-04T18:07:28.371Z,85.89
2018-11-04T18:09:56.824Z,86.46
2018-11-04T18:12:25.092Z,85.53
2018-11-04T18:14:53.425Z,86.12
2018-11-04T18:17:21.796Z,85.89
2018-11-04T18:19:50.175Z,85.87
2018-11-04T18:22:18.630Z,86.97
2018-11-04T18:24:46.896Z,86.90
2018-11-04T18:27:15.694Z,85.46
2018-11-04T18:29:43.984Z,86.30
2018-11-04T18:32:12.417Z,86.38
2018-11-04T18:34:40.665Z,86.07
2018-11-04T18:37:09.090Z,86.82
2018-11-04T18:39:37.367Z,86.62
2018-11-04T18:42:05.991Z,86.53
2018-11-04T18:44:34.493Z,86.58
2018-11-04T18:47:02.744Z,87.56
2018-11-04T18:49:31.199Z,87.65
2018-11-04T18:51:59.819Z,87.05
2018-11-04T18:54:28.458Z,87.11
2018-11-04T18:56:56.778Z,86.63
2018-11-04T18:59:25.786Z,87.44
2018-11-04T19:01:54.137Z,86.96
2018-11-04T19:04:22.563Z,88.07
2018-11-04T19:06:51.080Z,86.54
2018-11-04T19:09:19.463Z,85.88
2018-11-04T19:11:47.827Z,86.04
2018-11-04T19:14:16.110Z,87.10
2018-11-04T19:16:45.808Z,88.05
2018-11-04T19:19:14.221Z,87.89
2018-11-04T19:21:42.671Z,87.89
2018-11-04T19:24:11.021Z,86.51
2018-11-04T19:26:40.052Z,87.39
2018-11-04T19:29:08.717Z,87.76
2018-11-04T19:31:36.976Z,87.52
2018-11-04T19:34:05.436Z,87.39
2018-11-04T19:36:33.734Z,87.70
2018-11-04T19:39:02.109Z,87.71
2018-11-04T19:41:30.493Z,87.37
2018-11-04T19:43:58.932Z,88.85
2018-11-04T19:46:27.282Z,88.10
2018-11-04T19:48:55.567Z,88.46
2018-11-04T19:51:24.133Z,88.45
2018-11-04T19:53:52.420Z,88.19
2018-11-04T19:56:21.724Z,87.81
2018-11-04T19:58:50.077Z,90.09
2018-11-04T20:01:18.672Z,88.11
2018-11-04T20:03:47.083Z,89.50
2018-11-04T20:06:15.452Z,89.11
2018-11-04T20:08:48.853Z,89.62
2018-11-04T20:11:17.335Z,88.49
2018-11-04T20:13:50.899Z,88.28
2018-11-04T20:16:20.018Z,90.57
2018-11-04T20:18:53.637Z,89.90
2018-11-04T20:21:21.900Z,88.71
2018-11-04T20:23:50.614Z,88.37
2018-11-04T20:26:18.932Z,89.52
2018-11-04T20:28:48.523Z,88.46
2018-11-04T20:31:22.210Z,89.71
2018-11-04T20:33:50.637Z,90.19
2018-11-04T20:36:19.089Z,89.03
2018-11-04T20:38:52.708Z,88.88
2018-11-04T20:41:28.424Z,89.22
2018-11-04T20:43:56.864Z,90.15
2018-11-04T20:46:25.137Z,90.12
2018-11-04T20:48:58.872Z,90.47
2018-11-04T20:51:27.228Z,91.02
2018-11-04T20:53:55.993Z,89.73
2018-11-04T20:56:30.202Z,89.69
2018-11-04T20:58:58.669Z,90.87
2018-11-04T21:01:27.259Z,90.10
2018-11-04T21:03:55.826Z,90.20
2018-11-04T21:06:24.171Z,90.48
2018-11-04T21:08:52.614Z,90.11
2018-11-04T21:11:21.360Z,89.88
2018-11-04T21:13:49.635Z,90.74
2018-11-04T21:16:18.247Z,90.40
2018-11-04T21:18:46.504Z,90.85
2018-11-04T21:21:14.944Z,90.32
2018-11-04T21:23:45.596Z,90.82
2018-11-04T21:26:13.864Z,90.40
2018-11-04T21:28:42.327Z,90.88
2018-11-04T21:31:10.939Z,91.25
2018-11-04T21:33:39.438Z,91.42
2018-11-04T21:36:07.898Z,91.08
2018-11-04T21:38:36.404Z,90.76
2018-11-04T21:41:04.808Z,91.17
2018-11-04T21:43:33.215Z,92.34
2018-11-04T21:46:01.626Z,92.22
2018-11-04T21:48:29.938Z,91.45
2018-11-04T21:50:58.371Z,92.01
2018-11-04T21:53:27.117Z,91.94
2018-11-04T21:55:55.544Z,90.67
2018-11-04T21:58:23.755Z,91.72
2018-11-04T22:00:52.215Z,91.70
2018-11-04T22:03:20.846Z,91.86
2018-11-04T22:05:49.182Z,92.72
2018-11-04T22:08:18.132Z,92.66
2018-11-04T22:10:46.468Z,93.49
2018-11-04T22:13:14.834Z,92.68
2018-11-04T22:15:43.319Z,92.51
2018-11-04T22:18:11.757Z,93.76
2018-11-04T22:20:40.216Z,93.40
2018-11-04T22:23:08.638Z,93.78
2018-11-04T22:25:36.898Z,95.31
2018-11-04T22:28:05.326Z,95.75
2018-11-04T22:30:34.644Z,95.82
2018-11-04T22:33:03.058Z,96.12
2018-11-04T22:35:31.372Z,96.97
2018-11-04T22:37:59.645Z,96.67
2018-11-04T22:40:28.015Z,96.02
2018-11-04T22:42:56.305Z,96.23
2018-11-04T22:45:24.812Z,95.47
2018-11-04T22:47:53.195Z,95.35
2018-11-04T22:50:21.500Z,95.78
2018-11-04T22:52:49.782Z,96.53
2018-11-04T22:55:18.044Z,95.57
2018-11-04T22:57:46.466Z,96.09
2018-11-04T23:00:20.250Z,95.76
2018-11-04T23:02:49.691Z,95.59
2018-11-04T23:05:23.966Z,96.09
2018-11-04T23:07:52.703Z,94.62
2018-11-04T23:10:21.401Z,95.32
2018-11-04T23:12:49.846Z,96.02
2018-11-04T23:15:18.117Z,95.37
2018-11-04T23:17:46.497Z,95.55
2018-11-04T23:20:15.113Z,96.07
2018-11-04T23:22:44.326Z,96.81
2018-11-04T23:25:13.766Z,97.92
2018-11-04T23:27:42.850Z,97.85
2018-11-04T23:30:13.603Z,99.68
2018-11-04T23:32:43.393Z,100.00
2018-11-04T23:35:12.300Z,100.00
2018-11-04T23:37:41.085Z,100.00
2018-11-04T23:40:10.009Z,100.00
2018-11-04T23:42:38.272Z,100.00
2018-11-04T23:45:07.545Z,100.00
2018-11-04T23:47:35.837Z,100.00
2018-11-04T23:50:04.591Z,100.00
2018-11-04T23:52:32.902Z,100.00
2018-11-04T23:55:01.176Z,100.00
2018-11-04T23:57:29.448Z,100.00
2018-11-04T23:59:57.741Z,100.00
